sensor_id;sensor_type;location;lat;lon;timestamp;pressure;altitude;pressure_sealevel;temperature;humidity
9462;BME280;4769;42.660;23.262;2023-05-01T00:02:24;93971.22;;;12.83;82.84
9462;BME280;4769;42.660;23.262;2023-05-01T00:04:49;93972.13;;;13.03;82.55
9462;BME280;4769;42.660;23.262;2023-05-01T00:07:18;93966.63;;;13.15;81.90
9462;BME280;4769;42.660;23.262;2023-05-01T00:09:43;93970.09;;;13.20;81.69
9462;BME280;4769;42.660;23.262;2023-05-01T00:12:10;93965.31;;;13.17;81.87
9462;BME280;4769;42.660;23.262;2023-05-01T00:14:35;93969.59;;;13.23;82.09
9462;BME280;4769;42.660;23.262;2023-05-01T00:17:01;93974.09;;;13.28;81.65
9462;BME280;4769;42.660;23.262;2023-05-01T00:19:27;93971.44;;;13.28;81.72
9462;BME280;4769;42.660;23.262;2023-05-01T00:21:52;93974.53;;;13.05;83.03
9462;BME280;4769;42.660;23.262;2023-05-01T00:24:21;93967.00;;;12.92;83.87
9462;BME280;4769;42.660;23.262;2023-05-01T00:26:46;93968.75;;;13.13;83.06
9462;BME280;4769;42.660;23.262;2023-05-01T00:29:12;93966.59;;;13.05;83.12
9462;BME280;4769;42.660;23.262;2023-05-01T00:31:38;93971.91;;;13.10;83.08
9462;BME280;4769;42.660;23.262;2023-05-01T00:34:04;93967.63;;;12.99;83.63
9462;BME280;4769;42.660;23.262;2023-05-01T00:36:29;93971.06;;;12.99;84.00
9462;BME280;4769;42.660;23.262;2023-05-01T00:38:55;93966.06;;;13.03;83.91
9462;BME280;4769;42.660;23.262;2023-05-01T00:41:23;93970.53;;;13.02;83.67
9462;BME280;4769;42.660;23.262;2023-05-01T00:43:49;93975.34;;;13.10;83.65
9462;BME280;4769;42.660;23.262;2023-05-01T00:46:15;93975.13;;;13.17;83.02
9462;BME280;4769;42.660;23.262;2023-05-01T00:48:40;93971.16;;;13.24;82.48
9462;BME280;4769;42.660;23.262;2023-05-01T00:51:07;93980.97;;;13.29;82.15
9462;BME280;4769;42.660;23.262;2023-05-01T00:53:33;93982.53;;;13.20;82.61
9462;BME280;4769;42.660;23.262;2023-05-01T00:55:59;93987.03;;;13.19;83.34
9462;BME280;4769;42.660;23.262;2023-05-01T00:58:28;93988.84;;;13.14;83.57
9462;BME280;4769;42.660;23.262;2023-05-01T01:00:54;93983.44;;;12.94;84.09
9462;BME280;4769;42.660;23.262;2023-05-01T01:03:19;93982.69;;;12.98;83.80
9462;BME280;4769;42.660;23.262;2023-05-01T01:05:50;93988.28;;;12.97;84.23
9462;BME280;4769;42.660;23.262;2023-05-01T01:08:22;93994.91;;;12.99;84.46
9462;BME280;4769;42.660;23.262;2023-05-01T01:10:53;93990.84;;;12.92;84.58
9462;BME280;4769;42.660;23.262;2023-05-01T01:13:31;93987.53;;;12.65;86.00
9462;BME280;4769;42.660;23.262;2023-05-01T01:16:09;93994.88;;;12.58;86.84
9462;BME280;4769;42.660;23.262;2023-05-01T01:18:46;93991.47;;;12.62;87.07
9462;BME280;4769;42.660;23.262;2023-05-01T01:21:19;93996.56;;;12.69;87.03
9462;BME280;4769;42.660;23.262;2023-05-01T01:32:58;94004.53;;;12.79;86.90
9462;BME280;4769;42.660;23.262;2023-05-01T01:35:28;94000.63;;;12.91;86.57
9462;BME280;4769;42.660;23.262;2023-05-01T01:38:00;94005.69;;;12.93;86.62
9462;BME280;4769;42.660;23.262;2023-05-01T01:40:32;94006.44;;;12.88;86.73
9462;BME280;4769;42.660;23.262;2023-05-01T01:43:03;94006.44;;;12.88;87.12
9462;BME280;4769;42.660;23.262;2023-05-01T01:45:33;94005.03;;;12.76;87.76
9462;BME280;4769;42.660;23.262;2023-05-01T01:48:02;94003.69;;;12.68;88.45
9462;BME280;4769;42.660;23.262;2023-05-01T01:50:32;94001.59;;;12.75;88.15
9462;BME280;4769;42.660;23.262;2023-05-01T01:53:00;94005.88;;;12.45;89.60
9462;BME280;4769;42.660;23.262;2023-05-01T01:55:28;94004.22;;;12.34;90.62
9462;BME280;4769;42.660;23.262;2023-05-01T01:57:57;94002.28;;;12.56;89.55
9462;BME280;4769;42.660;23.262;2023-05-01T02:00:24;93993.28;;;12.57;89.40
9462;BME280;4769;42.660;23.262;2023-05-01T02:02:51;93998.13;;;12.65;88.91
9462;BME280;4769;42.660;23.262;2023-05-01T02:05:18;94004.75;;;12.67;89.16
9462;BME280;4769;42.660;23.262;2023-05-01T02:07:49;93998.88;;;12.65;89.27
9462;BME280;4769;42.660;23.262;2023-05-01T02:10:16;93997.56;;;12.68;88.82
9462;BME280;4769;42.660;23.262;2023-05-01T02:12:45;93999.69;;;12.66;88.71
9462;BME280;4769;42.660;23.262;2023-05-01T02:15:12;93989.84;;;12.56;89.58
9462;BME280;4769;42.660;23.262;2023-05-01T02:17:40;93992.75;;;12.18;91.48
9462;BME280;4769;42.660;23.262;2023-05-01T02:20:08;93998.03;;;12.18;92.20
9462;BME280;4769;42.660;23.262;2023-05-01T02:22:35;93986.97;;;12.21;92.42
9462;BME280;4769;42.660;23.262;2023-05-01T02:25:06;93981.03;;;12.09;93.09
9462;BME280;4769;42.660;23.262;2023-05-01T02:27:35;93980.59;;;12.17;92.55
9462;BME280;4769;42.660;23.262;2023-05-01T02:30:03;93983.16;;;12.07;93.54
9462;BME280;4769;42.660;23.262;2023-05-01T02:32:29;93985.22;;;12.05;93.78
9462;BME280;4769;42.660;23.262;2023-05-01T02:34:55;93987.06;;;12.00;93.94
9462;BME280;4769;42.660;23.262;2023-05-01T02:37:20;93986.88;;;12.11;93.87
9462;BME280;4769;42.660;23.262;2023-05-01T02:39:46;93984.81;;;12.18;93.18
9462;BME280;4769;42.660;23.262;2023-05-01T02:42:16;93990.16;;;12.28;92.89
9462;BME280;4769;42.660;23.262;2023-05-01T02:44:46;93988.13;;;12.35;92.49
9462;BME280;4769;42.660;23.262;2023-05-01T02:47:18;93988.16;;;12.40;91.60
9462;BME280;4769;42.660;23.262;2023-05-01T02:49:45;93996.66;;;12.47;91.47
9462;BME280;4769;42.660;23.262;2023-05-01T02:52:11;93994.75;;;12.38;91.09
9462;BME280;4769;42.660;23.262;2023-05-01T02:54:37;94001.34;;;12.35;91.41
9462;BME280;4769;42.660;23.262;2023-05-01T02:57:03;94003.06;;;12.20;92.32
9462;BME280;4769;42.660;23.262;2023-05-01T02:59:32;93993.78;;;12.17;92.47
9462;BME280;4769;42.660;23.262;2023-05-01T03:01:57;94000.72;;;12.23;92.70
9462;BME280;4769;42.660;23.262;2023-05-01T03:04:23;93998.06;;;12.23;92.45
9462;BME280;4769;42.660;23.262;2023-05-01T03:06:49;94004.94;;;12.24;92.70
9462;BME280;4769;42.660;23.262;2023-05-01T03:09:14;94004.16;;;12.24;92.37
9462;BME280;4769;42.660;23.262;2023-05-01T03:11:40;93997.94;;;12.08;92.32
9462;BME280;4769;42.660;23.262;2023-05-01T03:14:06;93999.44;;;11.99;92.64
9462;BME280;4769;42.660;23.262;2023-05-01T03:16:34;93998.88;;;11.92;93.39
9462;BME280;4769;42.660;23.262;2023-05-01T03:19:00;93999.25;;;12.06;93.83
9462;BME280;4769;42.660;23.262;2023-05-01T03:21:25;93994.03;;;11.84;94.48
9462;BME280;4769;42.660;23.262;2023-05-01T03:23:51;93996.97;;;11.88;95.18
9462;BME280;4769;42.660;23.262;2023-05-01T03:26:17;94000.38;;;12.15;93.94
9462;BME280;4769;42.660;23.262;2023-05-01T03:28:42;93985.97;;;11.96;94.58
9462;BME280;4769;42.660;23.262;2023-05-01T03:31:08;94000.06;;;12.06;95.15
9462;BME280;4769;42.660;23.262;2023-05-01T03:33:36;93995.03;;;12.05;94.45
9462;BME280;4769;42.660;23.262;2023-05-01T03:36:03;93997.09;;;12.03;95.05
9462;BME280;4769;42.660;23.262;2023-05-01T03:38:29;94003.47;;;12.07;94.94
9462;BME280;4769;42.660;23.262;2023-05-01T03:40:55;94001.66;;;12.07;94.46
9462;BME280;4769;42.660;23.262;2023-05-01T03:43:21;94014.47;;;11.94;94.27
9462;BME280;4769;42.660;23.262;2023-05-01T03:45:47;94026.38;;;11.70;94.00
9462;BME280;4769;42.660;23.262;2023-05-01T03:48:12;94027.53;;;11.57;94.52
9462;BME280;4769;42.660;23.262;2023-05-01T03:50:41;94033.31;;;11.54;94.58
9462;BME280;4769;42.660;23.262;2023-05-01T03:53:06;94038.69;;;11.59;94.95
9462;BME280;4769;42.660;23.262;2023-05-01T03:55:32;94044.44;;;11.56;94.56
9462;BME280;4769;42.660;23.262;2023-05-01T03:57:58;94043.81;;;11.49;94.86
9462;BME280;4769;42.660;23.262;2023-05-01T04:00:23;94039.41;;;11.55;95.25
9462;BME280;4769;42.660;23.262;2023-05-01T04:02:49;94049.91;;;11.71;94.82
9462;BME280;4769;42.660;23.262;2023-05-01T04:05:15;94052.34;;;11.78;94.87
9462;BME280;4769;42.660;23.262;2023-05-01T04:07:43;94053.22;;;11.83;94.95
9462;BME280;4769;42.660;23.262;2023-05-01T04:10:10;94055.09;;;11.88;95.12
9462;BME280;4769;42.660;23.262;2023-05-01T04:12:35;94042.50;;;11.95;95.20
9462;BME280;4769;42.660;23.262;2023-05-01T04:15:01;94049.16;;;12.02;95.04
9462;BME280;4769;42.660;23.262;2023-05-01T04:17:27;94043.63;;;12.04;94.90
9462;BME280;4769;42.660;23.262;2023-05-01T04:19:53;94043.47;;;12.15;94.32
9462;BME280;4769;42.660;23.262;2023-05-01T04:22:20;94059.09;;;12.22;93.54
9462;BME280;4769;42.660;23.262;2023-05-01T04:24:48;94055.94;;;12.20;93.34
9462;BME280;4769;42.660;23.262;2023-05-01T04:27:14;94052.78;;;12.23;93.56
9462;BME280;4769;42.660;23.262;2023-05-01T04:29:40;94048.84;;;12.25;93.26
9462;BME280;4769;42.660;23.262;2023-05-01T04:32:05;94042.19;;;12.18;93.72
9462;BME280;4769;42.660;23.262;2023-05-01T04:34:31;94053.78;;;12.17;93.82
9462;BME280;4769;42.660;23.262;2023-05-01T04:36:57;94049.38;;;11.96;94.54
9462;BME280;4769;42.660;23.262;2023-05-01T04:39:22;94046.72;;;11.96;94.17
9462;BME280;4769;42.660;23.262;2023-05-01T04:41:51;94044.13;;;12.01;94.56
9462;BME280;4769;42.660;23.262;2023-05-01T04:44:16;94058.69;;;12.03;94.80
9462;BME280;4769;42.660;23.262;2023-05-01T04:46:42;94045.88;;;12.22;94.53
9462;BME280;4769;42.660;23.262;2023-05-01T04:49:08;94057.47;;;12.47;93.10
9462;BME280;4769;42.660;23.262;2023-05-01T04:51:33;94056.47;;;12.53;92.54
9462;BME280;4769;42.660;23.262;2023-05-01T04:53:59;94055.72;;;12.58;91.71
9462;BME280;4769;42.660;23.262;2023-05-01T04:56:25;94061.09;;;12.73;91.57
9462;BME280;4769;42.660;23.262;2023-05-01T04:58:53;94062.53;;;12.85;90.50
9462;BME280;4769;42.660;23.262;2023-05-01T05:01:19;94060.97;;;13.36;93.33
9462;BME280;4769;42.660;23.262;2023-05-01T05:03:45;94055.63;;;13.93;91.33
9462;BME280;4769;42.660;23.262;2023-05-01T05:06:10;94064.22;;;14.30;88.21
9462;BME280;4769;42.660;23.262;2023-05-01T05:08:36;94062.63;;;14.59;86.61
9462;BME280;4769;42.660;23.262;2023-05-01T05:11:02;94070.56;;;14.69;85.18
9462;BME280;4769;42.660;23.262;2023-05-01T05:13:28;94058.91;;;14.55;82.80
9462;BME280;4769;42.660;23.262;2023-05-01T05:15:56;94072.94;;;14.40;83.17
9462;BME280;4769;42.660;23.262;2023-05-01T05:18:22;94070.50;;;14.18;83.41
9462;BME280;4769;42.660;23.262;2023-05-01T05:20:47;94078.19;;;14.05;85.16
9462;BME280;4769;42.660;23.262;2023-05-01T05:23:13;94083.53;;;14.20;84.04
9462;BME280;4769;42.660;23.262;2023-05-01T05:25:39;94087.78;;;14.26;83.55
9462;BME280;4769;42.660;23.262;2023-05-01T05:28:05;94093.63;;;14.23;83.06
9462;BME280;4769;42.660;23.262;2023-05-01T05:30:30;94098.97;;;14.53;86.21
9462;BME280;4769;42.660;23.262;2023-05-01T05:32:59;94100.81;;;14.93;85.25
9462;BME280;4769;42.660;23.262;2023-05-01T05:35:24;94100.78;;;15.18;84.42
9462;BME280;4769;42.660;23.262;2023-05-01T05:37:50;94107.13;;;15.27;81.59
9462;BME280;4769;42.660;23.262;2023-05-01T05:40:16;94105.28;;;15.27;79.84
9462;BME280;4769;42.660;23.262;2023-05-01T05:42:42;94109.03;;;15.11;79.34
9462;BME280;4769;42.660;23.262;2023-05-01T05:45:08;94106.91;;;15.08;79.71
9462;BME280;4769;42.660;23.262;2023-05-01T05:47:34;94101.34;;;14.85;80.42
9462;BME280;4769;42.660;23.262;2023-05-01T05:50:03;94101.34;;;14.85;80.51
9462;BME280;4769;42.660;23.262;2023-05-01T05:52:29;94106.13;;;14.98;82.16
9462;BME280;4769;42.660;23.262;2023-05-01T05:54:55;94102.09;;;15.20;79.96
9462;BME280;4769;42.660;23.262;2023-05-01T05:57:20;94107.44;;;15.25;80.12
9462;BME280;4769;42.660;23.262;2023-05-01T05:59:46;94109.25;;;15.45;78.09
9462;BME280;4769;42.660;23.262;2023-05-01T06:02:12;94110.06;;;15.30;78.46
9462;BME280;4769;42.660;23.262;2023-05-01T06:04:38;94109.28;;;15.30;79.24
9462;BME280;4769;42.660;23.262;2023-05-01T06:07:06;94110.34;;;15.39;78.52
9462;BME280;4769;42.660;23.262;2023-05-01T06:09:32;94111.09;;;15.54;77.81
9462;BME280;4769;42.660;23.262;2023-05-01T06:11:58;94110.31;;;15.49;77.64
9462;BME280;4769;42.660;23.262;2023-05-01T06:14:23;94118.78;;;15.66;77.23
9462;BME280;4769;42.660;23.262;2023-05-01T06:16:49;94114.25;;;15.66;77.51
9462;BME280;4769;42.660;23.262;2023-05-01T06:19:15;94112.94;;;15.59;77.29
9462;BME280;4769;42.660;23.262;2023-05-01T06:21:41;94120.09;;;15.68;77.29
9462;BME280;4769;42.660;23.262;2023-05-01T06:24:09;94119.22;;;15.83;76.82
9462;BME280;4769;42.660;23.262;2023-05-01T06:26:35;94116.72;;;16.11;76.09
9462;BME280;4769;42.660;23.262;2023-05-01T06:29:00;94114.47;;;16.33;75.07
9462;BME280;4769;42.660;23.262;2023-05-01T06:31:26;94117.06;;;16.48;74.20
9462;BME280;4769;42.660;23.262;2023-05-01T06:33:52;94115.09;;;16.64;73.43
9462;BME280;4769;42.660;23.262;2023-05-01T06:36:17;94120.50;;;16.87;73.00
9462;BME280;4769;42.660;23.262;2023-05-01T06:38:43;94116.72;;;16.98;72.57
9462;BME280;4769;42.660;23.262;2023-05-01T06:41:11;94111.25;;;16.80;72.84
9462;BME280;4769;42.660;23.262;2023-05-01T06:43:37;94122.28;;;17.02;71.47
9462;BME280;4769;42.660;23.262;2023-05-01T06:46:03;94123.06;;;17.02;71.55
9462;BME280;4769;42.660;23.262;2023-05-01T06:48:29;94118.84;;;16.96;72.09
9462;BME280;4769;42.660;23.262;2023-05-01T06:50:55;94121.31;;;17.21;71.53
9462;BME280;4769;42.660;23.262;2023-05-01T06:53:20;94123.81;;;17.41;69.80
9462;BME280;4769;42.660;23.262;2023-05-01T06:55:46;94123.03;;;17.36;69.87
9462;BME280;4769;42.660;23.262;2023-05-01T06:58:14;94124.03;;;17.45;68.43
9462;BME280;4769;42.660;23.262;2023-05-01T07:00:40;94125.19;;;17.62;68.91
9462;BME280;4769;42.660;23.262;2023-05-01T07:03:06;94131.28;;;17.91;66.68
9462;BME280;4769;42.660;23.262;2023-05-01T07:05:31;94132.28;;;17.95;65.50
9462;BME280;4769;42.660;23.262;2023-05-01T07:07:57;94132.44;;;18.04;65.36
9462;BME280;4769;42.660;23.262;2023-05-01T07:10:23;94130.88;;;18.21;65.30
9462;BME280;4769;42.660;23.262;2023-05-01T07:12:49;94126.41;;;18.40;63.73
9462;BME280;4769;42.660;23.262;2023-05-01T07:15:17;94124.41;;;18.27;64.64
9462;BME280;4769;42.660;23.262;2023-05-01T07:17:43;94132.47;;;18.46;62.81
9462;BME280;4769;42.660;23.262;2023-05-01T07:20:09;94126.25;;;19.19;67.08
9462;BME280;4769;42.660;23.262;2023-05-01T07:22:35;94129.59;;;19.75;60.10
9462;BME280;4769;42.660;23.262;2023-05-01T07:25:01;94130.63;;;19.47;59.74
9462;BME280;4769;42.660;23.262;2023-05-01T07:27:26;94139.44;;;18.97;60.33
9462;BME280;4769;42.660;23.262;2023-05-01T07:29:52;94121.91;;;19.10;60.35
9462;BME280;4769;42.660;23.262;2023-05-01T07:32:20;94140.91;;;18.90;60.70
9462;BME280;4769;42.660;23.262;2023-05-01T07:34:46;94141.94;;;19.44;58.84
9462;BME280;4769;42.660;23.262;2023-05-01T07:37:12;94131.06;;;19.81;57.22
9462;BME280;4769;42.660;23.262;2023-05-01T07:39:37;94131.47;;;19.88;56.43
9462;BME280;4769;42.660;23.262;2023-05-01T07:42:03;94136.53;;;19.90;56.39
9462;BME280;4769;42.660;23.262;2023-05-01T07:44:29;94129.22;;;20.09;55.17
9462;BME280;4769;42.660;23.262;2023-05-01T07:46:54;94126.84;;;20.21;53.87
9462;BME280;4769;42.660;23.262;2023-05-01T07:49:29;94126.03;;;20.47;53.86
9462;BME280;4769;42.660;23.262;2023-05-01T07:51:59;94130.75;;;20.64;53.76
9462;BME280;4769;42.660;23.262;2023-05-01T07:54:25;94130.00;;;20.36;53.13
9462;BME280;4769;42.660;23.262;2023-05-01T07:56:50;94126.41;;;20.54;53.83
9462;BME280;4769;42.660;23.262;2023-05-01T07:59:16;94125.06;;;20.79;52.15
9462;BME280;4769;42.660;23.262;2023-05-01T08:01:42;94121.44;;;20.97;50.85
9462;BME280;4769;42.660;23.262;2023-05-01T08:04:07;94125.63;;;20.76;50.95
9462;BME280;4769;42.660;23.262;2023-05-01T08:06:36;94127.09;;;21.39;48.88
9462;BME280;4769;42.660;23.262;2023-05-01T08:09:01;94127.13;;;21.70;48.04
9462;BME280;4769;42.660;23.262;2023-05-01T08:11:27;94126.69;;;21.76;48.79
9462;BME280;4769;42.660;23.262;2023-05-01T08:13:53;94122.28;;;21.50;48.59
9462;BME280;4769;42.660;23.262;2023-05-01T08:16:19;94126.09;;;21.79;48.87
9462;BME280;4769;42.660;23.262;2023-05-01T08:18:44;94119.63;;;22.19;46.00
9462;BME280;4769;42.660;23.262;2023-05-01T08:21:10;94124.25;;;22.44;46.94
9462;BME280;4769;42.660;23.262;2023-05-01T08:23:38;94126.44;;;23.24;47.04
9462;BME280;4769;42.660;23.262;2023-05-01T08:26:04;94114.72;;;23.03;42.73
9462;BME280;4769;42.660;23.262;2023-05-01T08:28:34;94112.03;;;22.94;43.27
9462;BME280;4769;42.660;23.262;2023-05-01T08:31:00;94113.13;;;23.02;42.74
9462;BME280;4769;42.660;23.262;2023-05-01T08:33:26;94123.25;;;22.96;41.96
9462;BME280;4769;42.660;23.262;2023-05-01T08:35:51;94109.88;;;22.40;41.88
9462;BME280;4769;42.660;23.262;2023-05-01T08:38:17;94125.22;;;22.40;43.15
9462;BME280;4769;42.660;23.262;2023-05-01T08:40:49;94114.34;;;22.45;43.90
9462;BME280;4769;42.660;23.262;2023-05-01T08:43:16;94117.53;;;22.64;40.33
9462;BME280;4769;42.660;23.262;2023-05-01T08:45:42;94115.34;;;22.18;42.31
9462;BME280;4769;42.660;23.262;2023-05-01T08:48:10;94109.78;;;22.54;42.71
9462;BME280;4769;42.660;23.262;2023-05-01T08:50:38;94106.19;;;23.01;43.34
9462;BME280;4769;42.660;23.262;2023-05-01T08:53:04;94105.19;;;23.48;42.26
9462;BME280;4769;42.660;23.262;2023-05-01T08:55:30;94102.75;;;23.72;41.47
9462;BME280;4769;42.660;23.262;2023-05-01T08:58:00;94111.13;;;23.88;40.85
9462;BME280;4769;42.660;23.262;2023-05-01T09:00:27;94098.31;;;23.76;38.38
9462;BME280;4769;42.660;23.262;2023-05-01T09:02:54;94107.78;;;23.82;35.52
9462;BME280;4769;42.660;23.262;2023-05-01T09:05:20;94112.50;;;22.88;37.95
9462;BME280;4769;42.660;23.262;2023-05-01T09:07:49;94104.28;;;23.35;39.51
9462;BME280;4769;42.660;23.262;2023-05-01T09:10:16;94095.06;;;24.00;36.91
9462;BME280;4769;42.660;23.262;2023-05-01T09:12:44;94092.19;;;24.13;35.67
9462;BME280;4769;42.660;23.262;2023-05-01T09:15:14;94094.44;;;24.32;35.71
9462;BME280;4769;42.660;23.262;2023-05-01T09:17:41;94092.78;;;24.48;34.69
9462;BME280;4769;42.660;23.262;2023-05-01T09:20:07;94086.25;;;24.78;35.00
9462;BME280;4769;42.660;23.262;2023-05-01T09:22:34;94093.91;;;24.76;35.05
9462;BME280;4769;42.660;23.262;2023-05-01T09:25:00;94095.78;;;25.16;34.60
9462;BME280;4769;42.660;23.262;2023-05-01T09:27:26;94088.63;;;25.20;33.50
9462;BME280;4769;42.660;23.262;2023-05-01T09:29:52;94095.25;;;25.23;33.28
9462;BME280;4769;42.660;23.262;2023-05-01T09:32:24;94099.13;;;25.13;33.42
9462;BME280;4769;42.660;23.262;2023-05-01T09:34:51;94091.53;;;24.95;34.77
9462;BME280;4769;42.660;23.262;2023-05-01T09:37:27;94092.03;;;24.68;33.74
9462;BME280;4769;42.660;23.262;2023-05-01T09:40:04;94098.63;;;24.50;33.60
9462;BME280;4769;42.660;23.262;2023-05-01T09:42:30;94084.91;;;25.25;33.70
9462;BME280;4769;42.660;23.262;2023-05-01T09:44:56;94091.84;;;25.34;33.30
9462;BME280;4769;42.660;23.262;2023-05-01T09:47:25;94091.25;;;24.88;34.33
9462;BME280;4769;42.660;23.262;2023-05-01T09:49:51;94086.78;;;24.71;34.92
9462;BME280;4769;42.660;23.262;2023-05-01T09:52:16;94083.56;;;24.98;35.12
9462;BME280;4769;42.660;23.262;2023-05-01T09:54:42;94078.47;;;25.38;34.68
9462;BME280;4769;42.660;23.262;2023-05-01T09:57:08;94085.59;;;25.99;31.69
9462;BME280;4769;42.660;23.262;2023-05-01T09:59:34;94078.03;;;25.80;31.25
9462;BME280;4769;42.660;23.262;2023-05-01T10:02:00;94081.88;;;24.73;34.21
9462;BME280;4769;42.660;23.262;2023-05-01T10:04:32;94087.84;;;24.21;35.41
9462;BME280;4769;42.660;23.262;2023-05-01T10:07:03;94083.78;;;24.15;35.94
9462;BME280;4769;42.660;23.262;2023-05-01T10:09:35;94071.19;;;24.77;34.88
9462;BME280;4769;42.660;23.262;2023-05-01T10:12:00;94072.84;;;25.43;33.47
9462;BME280;4769;42.660;23.262;2023-05-01T10:14:26;94066.38;;;25.68;33.35
9462;BME280;4769;42.660;23.262;2023-05-01T10:16:52;94077.22;;;25.80;32.33
9462;BME280;4769;42.660;23.262;2023-05-01T10:19:18;94069.50;;;25.46;32.71
9462;BME280;4769;42.660;23.262;2023-05-01T10:21:47;94077.16;;;25.03;32.89
9462;BME280;4769;42.660;23.262;2023-05-01T10:24:13;94074.63;;;24.86;34.22
9462;BME280;4769;42.660;23.262;2023-05-01T10:26:38;94076.75;;;24.51;34.48
9462;BME280;4769;42.660;23.262;2023-05-01T10:29:05;94081.81;;;24.24;34.94
9462;BME280;4769;42.660;23.262;2023-05-01T10:31:30;94066.94;;;24.96;34.31
9462;BME280;4769;42.660;23.262;2023-05-01T10:33:56;94067.28;;;25.07;33.14
9462;BME280;4769;42.660;23.262;2023-05-01T10:36:24;94077.16;;;26.00;32.38
9462;BME280;4769;42.660;23.262;2023-05-01T10:38:53;94073.56;;;26.44;31.33
9462;BME280;4769;42.660;23.262;2023-05-01T10:44:21;94066.03;;;25.04;32.94
9462;BME280;4769;42.660;23.262;2023-05-01T10:46:47;94067.69;;;24.27;34.90
9462;BME280;4769;42.660;23.262;2023-05-01T10:49:12;94072.88;;;23.56;37.45
9462;BME280;4769;42.660;23.262;2023-05-01T10:51:57;94069.97;;;23.70;37.99
9462;BME280;4769;42.660;23.262;2023-05-01T10:54:26;94081.88;;;23.60;38.53
9462;BME280;4769;42.660;23.262;2023-05-01T10:56:56;94077.50;;;23.47;38.52
9462;BME280;4769;42.660;23.262;2023-05-01T10:59:22;94082.75;;;23.81;38.00
9462;BME280;4769;42.660;23.262;2023-05-01T11:01:48;94078.38;;;24.15;36.17
9462;BME280;4769;42.660;23.262;2023-05-01T11:07:14;94069.63;;;25.49;33.98
9462;BME280;4769;42.660;23.262;2023-05-01T11:09:44;94079.13;;;25.14;32.94
9462;BME280;4769;42.660;23.262;2023-05-01T11:12:47;94068.91;;;24.67;34.02
9462;BME280;4769;42.660;23.262;2023-05-01T11:15:24;94076.31;;;25.76;32.78
9462;BME280;4769;42.660;23.262;2023-05-01T11:17:50;94062.44;;;26.22;32.24
9462;BME280;4769;42.660;23.262;2023-05-01T11:23:24;94075.91;;;26.70;31.46
9462;BME280;4769;42.660;23.262;2023-05-01T11:26:00;94064.97;;;27.18;31.00
9462;BME280;4769;42.660;23.262;2023-05-01T11:28:28;94056.91;;;27.61;30.50
9462;BME280;4769;42.660;23.262;2023-05-01T11:30:55;94072.72;;;26.92;31.01
9462;BME280;4769;42.660;23.262;2023-05-01T11:33:22;94070.41;;;27.06;31.19
9462;BME280;4769;42.660;23.262;2023-05-01T11:35:56;94079.03;;;26.84;31.29
9462;BME280;4769;42.660;23.262;2023-05-01T11:38:22;94071.97;;;26.07;32.16
9462;BME280;4769;42.660;23.262;2023-05-01T11:40:56;94067.66;;;25.82;32.86
9462;BME280;4769;42.660;23.262;2023-05-01T11:43:22;94065.19;;;25.33;33.37
9462;BME280;4769;42.660;23.262;2023-05-01T11:45:51;94068.19;;;24.99;34.60
9462;BME280;4769;42.660;23.262;2023-05-01T11:48:17;94064.47;;;24.33;35.87
9462;BME280;4769;42.660;23.262;2023-05-01T11:50:43;94071.00;;;23.48;36.50
9462;BME280;4769;42.660;23.262;2023-05-01T11:53:11;94073.03;;;23.51;37.32
9462;BME280;4769;42.660;23.262;2023-05-01T11:55:37;94065.00;;;23.34;37.78
9462;BME280;4769;42.660;23.262;2023-05-01T11:58:06;94058.88;;;23.08;38.92
9462;BME280;4769;42.660;23.262;2023-05-01T12:00:33;94071.50;;;22.91;44.21
9462;BME280;4769;42.660;23.262;2023-05-01T12:03:00;94059.66;;;23.17;44.68
9462;BME280;4769;42.660;23.262;2023-05-01T12:05:26;94067.88;;;22.70;47.17
9462;BME280;4769;42.660;23.262;2023-05-01T12:08:05;94056.97;;;23.26;44.90
9462;BME280;4769;42.660;23.262;2023-05-01T12:10:32;94064.25;;;23.08;43.79
9462;BME280;4769;42.660;23.262;2023-05-01T12:12:59;94064.16;;;23.59;44.15
9462;BME280;4769;42.660;23.262;2023-05-01T12:15:29;94070.09;;;23.10;38.40
9462;BME280;4769;42.660;23.262;2023-05-01T12:17:55;94077.06;;;22.94;38.85
9462;BME280;4769;42.660;23.262;2023-05-01T12:20:33;94072.59;;;23.15;38.38
9462;BME280;4769;42.660;23.262;2023-05-01T12:22:59;94064.22;;;23.00;38.22
9462;BME280;4769;42.660;23.262;2023-05-01T12:25:29;94063.44;;;23.08;37.19
9462;BME280;4769;42.660;23.262;2023-05-01T12:27:54;94067.38;;;22.42;37.43
9462;BME280;4769;42.660;23.262;2023-05-01T12:30:24;94068.75;;;22.23;37.80
9462;BME280;4769;42.660;23.262;2023-05-01T12:32:52;94070.97;;;22.29;37.87
9462;BME280;4769;42.660;23.262;2023-05-01T12:35:18;94072.56;;;21.83;37.82
9462;BME280;4769;42.660;23.262;2023-05-01T12:37:44;94057.34;;;22.17;37.50
9462;BME280;4769;42.660;23.262;2023-05-01T12:40:12;94068.25;;;22.12;37.13
9462;BME280;4769;42.660;23.262;2023-05-01T12:42:38;94065.78;;;22.41;38.43
9462;BME280;4769;42.660;23.262;2023-05-01T12:45:04;94067.13;;;22.05;36.94
9462;BME280;4769;42.660;23.262;2023-05-01T12:47:35;94068.59;;;22.36;37.59
9462;BME280;4769;42.660;23.262;2023-05-01T12:50:05;94069.63;;;22.57;36.39
9462;BME280;4769;42.660;23.262;2023-05-01T12:52:31;94058.22;;;22.86;36.35
9462;BME280;4769;42.660;23.262;2023-05-01T12:55:04;94055.63;;;23.49;34.93
9462;BME280;4769;42.660;23.262;2023-05-01T12:57:30;94049.41;;;25.02;31.79
9462;BME280;4769;42.660;23.262;2023-05-01T13:00:01;94063.72;;;25.15;32.16
9462;BME280;4769;42.660;23.262;2023-05-01T13:02:31;94061.53;;;26.06;30.38
9462;BME280;4769;42.660;23.262;2023-05-01T13:05:10;94049.41;;;27.42;28.27
9462;BME280;4769;42.660;23.262;2023-05-01T13:07:37;94064.22;;;27.60;27.58
9462;BME280;4769;42.660;23.262;2023-05-01T13:10:03;94063.03;;;27.30;28.08
9462;BME280;4769;42.660;23.262;2023-05-01T13:12:29;94070.34;;;28.16;27.28
9462;BME280;4769;42.660;23.262;2023-05-01T13:14:55;94065.19;;;27.25;27.45
9462;BME280;4769;42.660;23.262;2023-05-01T13:17:22;94066.06;;;27.84;25.97
9462;BME280;4769;42.660;23.262;2023-05-01T13:19:52;94065.75;;;28.66;24.78
9462;BME280;4769;42.660;23.262;2023-05-01T13:22:27;94065.97;;;27.53;26.26
9462;BME280;4769;42.660;23.262;2023-05-01T13:24:55;94071.44;;;26.14;28.68
9462;BME280;4769;42.660;23.262;2023-05-01T13:27:21;94073.81;;;25.06;30.67
9462;BME280;4769;42.660;23.262;2023-05-01T13:29:52;94074.81;;;25.01;31.27